Time;durP1;ratioP1;P1;durP2;ratioP2;P2;SDS_P1;SDS_P2;PMS_P1;PMS_P2;Temp;Humidity;BMP_temperature;BMP_pressure;BME280_temperature;BME280_humidity;BME280_pressure;Samples;Min_cycle;Max_cycle;Signal;HPM_P1;HPM_P2
2021/01/01 00:00:11;;;;;;;11.00;8.73;;;2.50;99.90;;;;;;6157379;23;20093;-85
2021/01/01 00:02:37;;;;;;;11.18;9.02;;;2.50;99.90;;;;;;6157858;23;20290;-85
2021/01/01 00:05:05;;;;;;;11.77;9.43;;;2.50;99.90;;;;;;6130969;23;20060;-84
2021/01/01 00:07:32;;;;;;;9.90;8.73;;;2.50;99.90;;;;;;6158605;23;20021;-85
2021/01/01 00:09:59;;;;;;;11.70;8.52;;;2.50;99.90;;;;;;6131866;23;20025;-85
2021/01/01 00:12:26;;;;;;;12.98;8.57;;;2.50;99.90;;;;;;6131464;23;20050;-85
2021/01/01 00:14:52;;;;;;;10.95;8.73;;;2.70;99.90;;;;;;6132515;23;20022;-85
2021/01/01 00:17:18;;;;;;;8.57;7.68;;;2.70;99.90;;;;;;6132716;23;20049;-84
2021/01/01 00:19:44;;;;;;;10.05;8.52;;;2.70;99.90;;;;;;6129976;23;20032;-84
2021/01/01 00:22:14;;;;;;;10.40;8.20;;;2.70;99.90;;;;;;6129813;23;20037;-84
2021/01/01 00:24:40;;;;;;;10.35;8.20;;;2.60;99.90;;;;;;6130312;23;20096;-85
2021/01/01 00:27:06;;;;;;;10.73;8.40;;;2.50;99.90;;;;;;6129865;23;20048;-84
2021/01/01 00:29:33;;;;;;;10.05;8.27;;;2.50;99.90;;;;;;6130390;23;20361;-84
2021/01/01 00:31:59;;;;;;;8.02;7.15;;;2.50;99.90;;;;;;6130250;23;20017;-85
2021/01/01 00:34:25;;;;;;;11.52;7.47;;;2.50;99.90;;;;;;6130879;23;20037;-85
2021/01/01 00:36:52;;;;;;;11.57;8.25;;;2.50;99.90;;;;;;6139735;23;20045;-86
2021/01/01 00:39:18;;;;;;;11.20;8.43;;;2.50;99.90;;;;;;6139167;23;20085;-86
2021/01/01 00:41:44;;;;;;;10.20;8.48;;;2.40;99.90;;;;;;6138990;23;20033;-86
2021/01/01 00:44:12;;;;;;;11.52;9.10;;;2.40;99.90;;;;;;6138814;23;20333;-85
2021/01/01 00:46:38;;;;;;;10.88;7.68;;;2.40;99.90;;;;;;6137433;23;20013;-85
2021/01/01 00:49:04;;;;;;;9.50;8.13;;;2.50;99.90;;;;;;6163882;23;20018;-85
2021/01/01 00:51:32;;;;;;;11.75;8.43;;;2.50;99.90;;;;;;6112212;23;20077;-85
2021/01/01 00:53:59;;;;;;;11.52;8.20;;;2.60;99.90;;;;;;6135162;23;20021;-85
2021/01/01 00:56:26;;;;;;;10.05;7.78;;;2.60;99.90;;;;;;6136269;23;20357;-85
2021/01/01 00:58:54;;;;;;;10.02;7.90;;;2.50;99.90;;;;;;6135615;23;20021;-85
2021/01/01 01:01:23;;;;;;;9.82;8.13;;;2.50;99.90;;;;;;6134879;23;20051;-85
2021/01/01 01:03:52;;;;;;;10.73;7.97;;;2.50;99.90;;;;;;6134163;23;20032;-85
2021/01/01 01:06:19;;;;;;;10.80;8.10;;;2.50;99.90;;;;;;6134639;23;20088;-85
2021/01/01 01:08:45;;;;;;;9.45;7.50;;;2.50;99.90;;;;;;6133930;23;20033;-85
2021/01/01 01:11:13;;;;;;;10.13;7.53;;;2.50;99.90;;;;;;6133411;23;20017;-84
2021/01/01 01:13:39;;;;;;;12.30;8.55;;;2.50;99.90;;;;;;6133173;23;20036;-85
2021/01/01 01:16:06;;;;;;;12.02;8.20;;;2.50;99.90;;;;;;6133593;23;20064;-85
2021/01/01 01:18:33;;;;;;;8.75;7.15;;;2.50;99.90;;;;;;6132778;23;20025;-85
2021/01/01 01:20:59;;;;;;;10.70;7.22;;;2.50;99.90;;;;;;6159258;23;20030;-84
2021/01/01 01:23:25;;;;;;;9.63;7.65;;;2.50;99.90;;;;;;6158852;23;20290;-85
2021/01/01 01:25:52;;;;;;;10.25;7.65;;;2.40;99.90;;;;;;6158689;23;20072;-85
2021/01/01 01:28:18;;;;;;;11.00;8.68;;;2.40;99.90;;;;;;6158665;23;20018;-85
2021/01/01 01:30:44;;;;;;;10.95;7.95;;;2.40;99.90;;;;;;6158111;23;20056;-84
2021/01/01 01:33:11;;;;;;;12.38;8.85;;;2.40;99.90;;;;;;6132403;23;20049;-85
2021/01/01 01:35:38;;;;;;;10.55;7.75;;;2.40;99.90;;;;;;6157840;23;20032;-85
2021/01/01 01:38:05;;;;;;;12.40;7.88;;;2.40;99.90;;;;;;6131814;23;20025;-85
2021/01/01 01:40:31;;;;;;;9.45;7.40;;;2.30;99.90;;;;;;6131669;23;20029;-84
2021/01/01 01:42:58;;;;;;;12.05;8.40;;;2.20;99.90;;;;;;6157537;23;20036;-85
2021/01/01 01:45:24;;;;;;;10.63;7.80;;;2.20;99.90;;;;;;6157343;23;20504;-84
2021/01/01 01:47:51;;;;;;;11.02;7.97;;;2.00;99.90;;;;;;6157237;23;20024;-84
2021/01/01 01:50:17;;;;;;;16.20;9.82;;;2.00;99.90;;;;;;6131643;23;20032;-84
2021/01/01 01:52:46;;;;;;;12.05;8.43;;;2.00;99.90;;;;;;6157586;23;20393;-84
2021/01/01 01:55:12;;;;;;;13.32;8.60;;;2.00;99.90;;;;;;6157482;23;20018;-85
2021/01/01 01:57:39;;;;;;;13.00;8.10;;;2.00;99.90;;;;;;6131199;23;20052;-84
2021/01/01 02:00:39;;;;;;;13.48;9.10;;;2.00;99.90;;;;;;6157778;23;20025;-82
2021/01/01 02:03:04;;;;;;;15.15;9.30;;;2.00;99.90;;;;;;6156756;23;20053;-86
2021/01/01 02:05:31;;;;;;;13.50;9.25;;;2.00;99.90;;;;;;6157855;23;20028;-85
2021/01/01 02:07:57;;;;;;;12.30;10.13;;;2.10;99.90;;;;;;6158870;23;20043;-84
2021/01/01 02:10:24;;;;;;;13.98;11.05;;;2.10;99.90;;;;;;6131747;23;20029;-85
2021/01/01 02:12:50;;;;;;;13.65;10.75;;;2.20;99.90;;;;;;6157531;23;20076;-85
2021/01/01 02:15:16;;;;;;;13.93;10.05;;;2.30;99.90;;;;;;6131622;23;20470;-82
2021/01/01 02:17:42;;;;;;;13.57;10.30;;;2.30;99.90;;;;;;6131508;23;20359;-85
2021/01/01 02:20:10;;;;;;;10.02;9.02;;;2.40;99.90;;;;;;6157922;23;20061;-85
2021/01/01 02:22:37;;;;;;;12.63;10.15;;;2.40;99.90;;;;;;6135769;23;20032;-86
2021/01/01 02:25:06;;;;;;;13.52;10.55;;;2.40;99.90;;;;;;6167553;23;20523;-86
2021/01/01 02:27:32;;;;;;;12.10;9.98;;;2.40;99.90;;;;;;6140209;23;20022;-86
2021/01/01 02:30:13;;;;;;;13.07;10.75;;;2.40;99.90;;;;;;6167008;23;20028;-85
2021/01/01 02:32:39;;;;;;;12.65;10.23;;;2.50;99.90;;;;;;6139143;23;20068;-86
2021/01/01 02:35:06;;;;;;;12.63;10.60;;;2.50;99.90;;;;;;6165176;23;20356;-83
2021/01/01 02:37:33;;;;;;;12.75;10.23;;;2.50;99.90;;;;;;6164845;23;20021;-82
2021/01/01 02:39:59;;;;;;;12.40;10.88;;;2.60;99.90;;;;;;6138534;23;20052;-85
2021/01/01 02:42:25;;;;;;;13.13;11.02;;;2.60;99.90;;;;;;6163959;23;20021;-85
2021/01/01 02:44:52;;;;;;;13.15;11.23;;;2.60;99.90;;;;;;6137011;23;20061;-85
2021/01/01 02:47:18;;;;;;;13.00;11.10;;;2.60;99.90;;;;;;6136426;23;20021;-84
2021/01/01 02:49:44;;;;;;;11.55;10.02;;;2.60;99.90;;;;;;6136830;23;20353;-85
2021/01/01 02:52:10;;;;;;;12.88;10.43;;;2.60;99.90;;;;;;6135040;23;20064;-84
2021/01/01 02:54:37;;;;;;;11.93;10.27;;;2.50;99.90;;;;;;6135317;23;20017;-86
2021/01/01 02:57:03;;;;;;;12.55;10.05;;;2.50;99.90;;;;;;6135377;23;20017;-85
2021/01/01 02:59:29;;;;;;;15.05;11.70;;;2.40;99.90;;;;;;6135069;23;20025;-85
2021/01/01 03:01:55;;;;;;;14.20;11.52;;;2.40;99.90;;;;;;6133926;23;20022;-85
2021/01/01 03:04:22;;;;;;;16.10;11.60;;;2.20;99.90;;;;;;6133854;23;20024;-85
2021/01/01 03:06:48;;;;;;;16.05;12.18;;;2.10;99.90;;;;;;6134119;23;20022;-85
2021/01/01 03:09:15;;;;;;;13.38;11.43;;;1.90;99.90;;;;;;6160454;23;20021;-85
2021/01/01 03:11:41;;;;;;;14.18;11.65;;;1.80;99.90;;;;;;6160243;23;20029;-82
2021/01/01 03:14:07;;;;;;;14.45;11.13;;;1.70;99.90;;;;;;6133549;23;20472;-85
2021/01/01 03:16:34;;;;;;;14.70;10.93;;;1.60;99.90;;;;;;6158830;23;20028;-84
2021/01/01 03:19:00;;;;;;;13.80;10.90;;;1.60;99.90;;;;;;6132998;23;20044;-85
2021/01/01 03:21:26;;;;;;;13.25;10.93;;;1.70;99.90;;;;;;6132337;23;20028;-85
2021/01/01 03:23:52;;;;;;;13.90;11.77;;;1.70;99.90;;;;;;6132326;23;20037;-85
2021/01/01 03:26:19;;;;;;;13.10;10.70;;;1.80;99.90;;;;;;6132638;23;20053;-85
2021/01/01 03:28:45;;;;;;;12.57;10.82;;;1.90;99.90;;;;;;6158516;23;20024;-84
2021/01/01 03:31:11;;;;;;;12.82;11.02;;;1.80;99.90;;;;;;6131986;23;20025;-84
2021/01/01 03:33:37;;;;;;;14.20;11.25;;;1.90;99.90;;;;;;6158651;23;20052;-84
2021/01/01 03:36:04;;;;;;;13.85;11.43;;;1.90;99.90;;;;;;6131902;23;20053;-85
2021/01/01 03:38:31;;;;;;;12.07;9.68;;;2.00;99.90;;;;;;6131801;23;20022;-84
2021/01/01 03:40:58;;;;;;;10.90;8.90;;;1.80;99.90;;;;;;6131621;23;20045;-85
2021/01/01 03:43:25;;;;;;;12.63;10.50;;;1.90;99.90;;;;;;6131830;23;20352;-84
2021/01/01 03:45:51;;;;;;;12.05;10.02;;;1.80;99.90;;;;;;6131547;23;20080;-84
2021/01/01 03:48:18;;;;;;;10.95;9.43;;;1.80;99.90;;;;;;6131730;23;20064;-84
2021/01/01 03:50:45;;;;;;;11.40;9.90;;;1.90;99.90;;;;;;6131283;23;20046;-85
2021/01/01 03:53:11;;;;;;;12.05;9.23;;;1.80;99.90;;;;;;6132002;23;20041;-85
2021/01/01 03:55:38;;;;;;;11.20;9.25;;;1.70;99.90;;;;;;6157243;23;20041;-84
2021/01/01 03:58:04;;;;;;;11.32;8.90;;;1.60;99.90;;;;;;6130669;23;20017;-84
2021/01/01 04:00:31;;;;;;;13.88;9.60;;;1.50;99.90;;;;;;6130617;23;20021;-84
2021/01/01 04:02:57;;;;;;;11.10;9.05;;;1.40;99.90;;;;;;6130271;23;20017;-84
2021/01/01 04:05:23;;;;;;;13.02;10.20;;;1.40;99.90;;;;;;6130497;23;20022;-85
2021/01/01 04:07:49;;;;;;;10.68;9.00;;;1.40;99.90;;;;;;6130239;23;20014;-82
2021/01/01 04:10:16;;;;;;;13.05;9.85;;;1.40;99.90;;;;;;6132816;23;20017;-85
2021/01/01 04:12:42;;;;;;;14.27;10.35;;;1.50;99.90;;;;;;6140700;23;20449;-86
2021/01/01 04:15:09;;;;;;;9.98;8.02;;;1.60;99.90;;;;;;6165323;23;20018;-85
2021/01/01 04:17:35;;;;;;;8.88;7.90;;;1.40;99.90;;;;;;6165123;23;20372;-86
2021/01/01 04:20:02;;;;;;;9.85;8.27;;;1.60;99.90;;;;;;6163615;23;20052;-85
2021/01/01 04:22:29;;;;;;;9.75;8.40;;;1.60;99.90;;;;;;6138023;23;20085;-85
2021/01/01 04:24:55;;;;;;;9.07;7.93;;;1.70;99.90;;;;;;6163425;23;20355;-85
2021/01/01 04:27:21;;;;;;;8.18;7.28;;;1.80;99.90;;;;;;6136136;23;20048;-85
2021/01/01 04:29:48;;;;;;;8.52;7.18;;;1.80;99.90;;;;;;6162589;23;20022;-85
2021/01/01 04:32:14;;;;;;;8.30;7.20;;;1.90;99.90;;;;;;6162056;23;20024;-84
2021/01/01 04:34:40;;;;;;;10.40;9.20;;;1.90;99.90;;;;;;6135681;23;20021;-86
2021/01/01 04:37:06;;;;;;;8.88;7.97;;;2.00;99.90;;;;;;6161714;23;20025;-85
2021/01/01 04:39:33;;;;;;;8.95;8.05;;;2.00;99.90;;;;;;6134732;23;20073;-85
2021/01/01 04:42:02;;;;;;;9.43;8.13;;;2.00;99.90;;;;;;6134531;23;20429;-85
2021/01/01 04:44:28;;;;;;;9.65;8.25;;;1.90;99.90;;;;;;6160282;23;20021;-85
2021/01/01 04:46:55;;;;;;;10.63;8.85;;;2.00;99.90;;;;;;6160295;23;20020;-83
2021/01/01 04:49:22;;;;;;;11.55;9.38;;;2.10;99.90;;;;;;6133702;23;20022;-85
2021/01/01 04:51:49;;;;;;;9.93;8.93;;;2.20;99.90;;;;;;6133613;23;20021;-85
2021/01/01 04:54:17;;;;;;;11.77;10.57;;;2.30;99.90;;;;;;6133049;23;20021;-85
2021/01/01 04:56:47;;;;;;;8.88;7.93;;;2.40;99.90;;;;;;6158828;23;20088;-85
2021/01/01 04:59:16;;;;;;;9.68;8.55;;;2.50;99.90;;;;;;6132203;23;20360;-84
2021/01/01 05:01:45;;;;;;;9.45;8.55;;;2.60;99.90;;;;;;6132563;23;20076;-85
2021/01/01 05:04:12;;;;;;;12.02;10.70;;;2.60;99.90;;;;;;6131786;23;20021;-85
2021/01/01 05:06:40;;;;;;;10.20;8.93;;;2.60;99.90;;;;;;6148959;23;20074;-86
2021/01/01 05:09:07;;;;;;;9.38;8.43;;;2.70;99.90;;;;;;6159366;23;20005;-86
2021/01/01 05:11:33;;;;;;;11.13;8.57;;;2.70;99.90;;;;;;6184215;23;20013;-87
2021/01/01 05:14:05;;;;;;;8.75;7.75;;;2.70;99.90;;;;;;6147134;23;20021;-86
2021/01/01 05:16:34;;;;;;;10.85;9.02;;;2.70;99.90;;;;;;6141358;23;20460;-86
2021/01/01 05:19:12;;;;;;;9.48;8.32;;;2.80;99.90;;;;;;6139919;23;20025;-86
2021/01/01 05:21:39;;;;;;;8.65;7.70;;;2.80;99.90;;;;;;6140436;23;20025;-86
2021/01/01 05:24:07;;;;;;;8.90;8.00;;;2.80;99.90;;;;;;6166640;23;20056;-86
2021/01/01 05:26:33;;;;;;;10.35;8.20;;;2.80;99.90;;;;;;6166722;23;20025;-86
2021/01/01 05:29:05;;;;;;;9.55;7.72;;;2.80;99.90;;;;;;6165532;23;20049;-86
2021/01/01 05:31:38;;;;;;;8.63;7.67;;;2.80;99.90;;;;;;6140359;23;20028;-86
2021/01/01 05:34:05;;;;;;;9.27;8.10;;;2.80;99.90;;;;;;6166407;23;20245;-84
2021/01/01 05:36:34;;;;;;;10.52;8.55;;;2.80;99.90;;;;;;6140198;23;20053;-86
2021/01/01 05:39:03;;;;;;;10.18;9.07;;;2.80;99.90;;;;;;6165319;23;20044;-86
2021/01/01 05:41:35;;;;;;;10.85;8.60;;;2.80;99.90;;;;;;6168315;23;20130;-86
2021/01/01 05:44:11;;;;;;;13.48;9.43;;;2.90;99.90;;;;;;6142292;23;20032;-86
2021/01/01 05:46:57;;;;;;;11.85;8.65;;;2.80;99.90;;;;;;6168822;23;20029;-86
2021/01/01 05:49:35;;;;;;;12.50;10.00;;;2.80;99.90;;;;;;6161379;23;20021;-85
2021/01/01 05:52:17;;;;;;;12.02;10.68;;;2.80;99.90;;;;;;6159233;23;20060;-85
2021/01/01 05:54:45;;;;;;;13.20;10.18;;;2.80;99.90;;;;;;6159139;23;20022;-85
2021/01/01 05:57:13;;;;;;;11.35;9.50;;;2.80;99.90;;;;;;6135444;23;20400;-85
2021/01/01 05:59:45;;;;;;;12.13;10.20;;;2.80;99.90;;;;;;6143806;23;20368;-86
2021/01/01 06:02:13;;;;;;;12.48;10.95;;;2.80;99.90;;;;;;6143644;23;20026;-86
2021/01/01 06:04:40;;;;;;;14.73;11.65;;;2.80;99.90;;;;;;6168848;23;20025;-86
2021/01/01 06:07:11;;;;;;;13.20;10.80;;;2.80;99.90;;;;;;6168822;23;20053;-86
2021/01/01 06:09:39;;;;;;;12.85;10.18;;;2.80;99.90;;;;;;6141672;23;20021;-86
2021/01/01 06:12:10;;;;;;;14.32;10.25;;;2.80;99.90;;;;;;6168011;23;20021;-85
2021/01/01 06:14:46;;;;;;;11.85;9.75;;;2.90;99.90;;;;;;6166799;23;20052;-86
2021/01/01 06:17:15;;;;;;;12.80;10.05;;;2.90;99.90;;;;;;6141193;23;20052;-85
2021/01/01 06:19:48;;;;;;;12.05;9.50;;;2.90;99.90;;;;;;6140587;23;20032;-82
2021/01/01 06:22:25;;;;;;;12.85;10.10;;;3.00;99.90;;;;;;6167254;23;20355;-85
2021/01/01 06:24:53;;;;;;;12.18;9.57;;;2.90;99.90;;;;;;6166633;23;20055;-86
2021/01/01 06:27:22;;;;;;;12.95;9.55;;;2.90;99.90;;;;;;6140221;23;20020;-85
2021/01/01 06:30:08;;;;;;;11.75;9.70;;;2.90;99.90;;;;;;6140188;23;20337;-86
2021/01/01 06:32:34;;;;;;;11.30;9.07;;;2.90;99.90;;;;;;6140159;23;20014;-86
2021/01/01 06:35:19;;;;;;;11.82;9.57;;;2.90;99.90;;;;;;6140231;23;20048;-86
2021/01/01 06:37:47;;;;;;;12.48;9.20;;;2.90;99.90;;;;;;6139184;23;20040;-86
2021/01/01 06:40:20;;;;;;;9.90;8.57;;;2.80;99.90;;;;;;6140433;23;20028;-85
2021/01/01 06:42:57;;;;;;;11.02;8.15;;;2.80;99.90;;;;;;6140299;23;20025;-85
2021/01/01 06:45:36;;;;;;;10.02;8.32;;;2.90;99.90;;;;;;6139189;23;20028;-85
2021/01/01 06:48:07;;;;;;;9.82;7.95;;;2.90;99.90;;;;;;6139692;23;20017;-85
2021/01/01 06:50:35;;;;;;;10.10;7.75;;;2.80;99.90;;;;;;6139468;23;20072;-84
2021/01/01 06:53:10;;;;;;;10.63;8.27;;;2.80;99.90;;;;;;6138026;23;20473;-85
2021/01/01 06:55:38;;;;;;;9.45;8.00;;;2.80;99.90;;;;;;6163977;23;20411;-85
2021/01/01 06:58:06;;;;;;;10.23;8.18;;;2.70;99.90;;;;;;6164680;23;20499;-85
2021/01/01 07:00:58;;;;;;;9.50;8.00;;;2.70;99.90;;;;;;6137646;23;20037;-86
2021/01/01 07:03:36;;;;;;;8.68;7.15;;;2.50;99.90;;;;;;6158543;23;20025;-85
2021/01/01 07:06:02;;;;;;;9.85;7.85;;;2.50;99.90;;;;;;6137245;23;20026;-85
2021/01/01 07:08:41;;;;;;;9.45;8.13;;;2.40;99.90;;;;;;6137911;23;20041;-85
2021/01/01 07:11:07;;;;;;;11.48;8.25;;;2.30;99.90;;;;;;6136675;23;20025;-85
2021/01/01 07:13:45;;;;;;;9.50;7.82;;;2.30;99.90;;;;;;6163820;23;20390;-85
2021/01/01 07:16:13;;;;;;;9.18;7.85;;;2.20;99.90;;;;;;6163889;23;20021;-85
2021/01/01 07:18:39;;;;;;;9.13;7.07;;;2.20;99.90;;;;;;6137456;23;20040;-85
2021/01/01 07:21:09;;;;;;;7.63;6.65;;;2.20;99.90;;;;;;6137347;23;20025;-85
2021/01/01 07:23:36;;;;;;;8.50;6.97;;;2.00;99.90;;;;;;6137004;23;20044;-86
2021/01/01 07:26:04;;;;;;;8.32;6.88;;;2.00;99.90;;;;;;6135986;23;20041;-82
2021/01/01 07:28:38;;;;;;;8.70;7.57;;;2.00;99.90;;;;;;6136829;23;20018;-85
2021/01/01 07:31:05;;;;;;;9.65;7.88;;;2.10;99.90;;;;;;6163321;23;20021;-85
2021/01/01 07:33:32;;;;;;;10.63;8.32;;;2.00;99.90;;;;;;6162402;23;20453;-82
2021/01/01 07:36:07;;;;;;;9.95;7.80;;;2.10;99.90;;;;;;6136817;23;20018;-83
2021/01/01 07:38:39;;;;;;;9.38;7.97;;;2.10;99.90;;;;;;6136874;23;20013;-86
2021/01/01 07:41:06;;;;;;;8.73;7.43;;;2.20;99.90;;;;;;6158257;23;20100;-85
2021/01/01 07:43:32;;;;;;;9.68;7.93;;;2.20;99.90;;;;;;6157575;23;20105;-82
2021/01/01 07:46:04;;;;;;;8.85;7.55;;;2.20;99.90;;;;;;6158018;23;20053;-85
2021/01/01 07:48:31;;;;;;;10.35;8.05;;;2.10;99.90;;;;;;6157772;23;20456;-85
2021/01/01 07:51:08;;;;;;;9.70;7.93;;;2.00;99.90;;;;;;6159003;23;20026;-86
2021/01/01 07:53:35;;;;;;;10.57;8.15;;;2.00;99.90;;;;;;6167709;23;20021;-86
2021/01/01 07:56:06;;;;;;;8.02;7.07;;;2.00;99.90;;;;;;6147098;23;20022;-85
2021/01/01 07:58:32;;;;;;;13.48;7.90;;;2.00;99.90;;;;;;6139035;23;20022;-86
2021/01/01 08:01:06;;;;;;;8.70;7.07;;;1.90;99.90;;;;;;6139834;23;20021;-85
2021/01/01 08:03:34;;;;;;;8.60;7.13;;;2.00;99.90;;;;;;6164562;23;20112;-87
2021/01/01 08:06:01;;;;;;;8.45;7.10;;;2.00;99.90;;;;;;6137013;23;20017;-85
2021/01/01 08:08:28;;;;;;;6.63;5.93;;;2.10;99.90;;;;;;6138449;23;20554;-85
2021/01/01 08:10:56;;;;;;;7.13;6.30;;;2.20;99.90;;;;;;6139133;23;20018;-85
2021/01/01 08:13:26;;;;;;;7.25;6.20;;;2.20;99.90;;;;;;6137833;23;20025;-85
2021/01/01 08:15:54;;;;;;;6.88;6.15;;;2.20;99.90;;;;;;6135598;23;20021;-85
2021/01/01 08:18:25;;;;;;;7.00;6.30;;;2.30;99.90;;;;;;6137282;23;20464;-85
2021/01/01 08:20:56;;;;;;;7.43;6.20;;;2.30;99.90;;;;;;6137499;23;20028;-85
2021/01/01 08:23:23;;;;;;;7.25;6.18;;;2.30;99.90;;;;;;6161714;23;20025;-85
2021/01/01 08:25:51;;;;;;;8.07;6.60;;;2.30;99.90;;;;;;6135500;23;20089;-85
2021/01/01 08:28:28;;;;;;;6.85;5.90;;;2.30;99.90;;;;;;6135347;23;20213;-85
2021/01/01 08:31:06;;;;;;;8.45;6.38;;;2.30;99.90;;;;;;6135498;23;20024;-85
2021/01/01 08:33:37;;;;;;;6.72;6.13;;;2.20;99.90;;;;;;6134922;23;20025;-85
2021/01/01 08:36:06;;;;;;;7.60;5.50;;;2.30;99.90;;;;;;6135777;23;20014;-85
2021/01/01 08:38:32;;;;;;;5.88;5.28;;;2.30;99.90;;;;;;6136139;23;20022;-85
2021/01/01 08:40:59;;;;;;;6.10;5.50;;;2.40;99.90;;;;;;6135388;23;20057;-85
2021/01/01 08:43:28;;;;;;;8.15;6.40;;;2.40;99.90;;;;;;6161362;23;20058;-84
2021/01/01 08:45:54;;;;;;;8.10;5.97;;;2.30;99.90;;;;;;6161765;23;20057;-85
2021/01/01 08:48:21;;;;;;;6.50;5.90;;;2.20;99.90;;;;;;6134527;23;20033;-85
2021/01/01 08:50:51;;;;;;;7.32;6.50;;;2.20;99.90;;;;;;6134771;23;20041;-86
2021/01/01 08:53:19;;;;;;;8.15;6.25;;;2.40;99.90;;;;;;6135449;23;20021;-85
2021/01/01 08:55:58;;;;;;;6.90;6.20;;;2.60;99.90;;;;;;6135342;23;20053;-85
2021/01/01 08:58:25;;;;;;;7.75;6.15;;;2.70;99.90;;;;;;6162332;23;20021;-85
2021/01/01 09:01:15;;;;;;;7.00;5.95;;;2.70;99.90;;;;;;6139871;23;20021;-84
2021/01/01 09:03:42;;;;;;;10.02;7.28;;;2.80;99.90;;;;;;6135563;23;20053;-85
2021/01/01 09:06:19;;;;;;;7.53;6.30;;;2.80;99.90;;;;;;6135866;23;20333;-85
2021/01/01 09:08:45;;;;;;;7.43;5.57;;;3.00;99.90;;;;;;6135269;23;20498;-85
2021/01/01 09:11:24;;;;;;;15.77;9.98;;;3.00;99.90;;;;;;6161979;23;20045;-85
2021/01/01 09:14:04;;;;;;;5.47;4.97;;;3.10;99.90;;;;;;6161414;23;20041;-85
2021/01/01 09:16:48;;;;;;;8.55;6.45;;;3.30;99.90;;;;;;6160106;23;20049;-85
2021/01/01 09:19:14;;;;;;;7.22;6.07;;;3.30;99.90;;;;;;6161856;23;20033;-85
2021/01/01 09:21:41;;;;;;;5.25;4.57;;;3.20;99.90;;;;;;6135613;23;20076;-85
2021/01/01 09:24:08;;;;;;;6.30;4.53;;;3.10;99.90;;;;;;6134466;23;20088;-86
2021/01/01 09:26:34;;;;;;;6.40;4.90;;;3.20;99.90;;;;;;6134933;23;20045;-85
2021/01/01 09:29:05;;;;;;;5.95;4.50;;;3.10;99.90;;;;;;6135126;23;20101;-85
2021/01/01 09:31:33;;;;;;;5.03;4.60;;;3.20;99.90;;;;;;6160776;23;20495;-86
2021/01/01 09:34:05;;;;;;;5.20;4.40;;;3.40;99.90;;;;;;6132840;23;20396;-85
2021/01/01 09:36:36;;;;;;;6.43;5.00;;;3.60;99.90;;;;;;6129312;23;20026;-85
2021/01/01 09:39:06;;;;;;;5.35;4.75;;;3.70;99.90;;;;;;6130838;23;20033;-85
2021/01/01 09:41:36;;;;;;;6.35;4.95;;;3.90;99.90;;;;;;6130852;23;20026;-85
2021/01/01 09:44:03;;;;;;;5.28;4.78;;;3.90;99.90;;;;;;6133378;23;20076;-86
2021/01/01 09:46:29;;;;;;;4.70;4.22;;;3.90;99.90;;;;;;6140297;23;20045;-86
2021/01/01 09:48:56;;;;;;;5.57;4.00;;;3.90;99.90;;;;;;6139566;23;20021;-86
2021/01/01 09:51:23;;;;;;;4.75;3.55;;;4.10;99.90;;;;;;6139119;23;20020;-84
2021/01/01 09:53:49;;;;;;;4.75;4.18;;;4.30;99.90;;;;;;6137989;23;20026;-85
2021/01/01 09:56:16;;;;;;;4.03;3.72;;;4.50;99.90;;;;;;6137870;23;20014;-85
2021/01/01 09:58:42;;;;;;;3.53;3.33;;;4.70;99.90;;;;;;6137296;23;20345;-86
2021/01/01 10:01:08;;;;;;;5.22;3.67;;;4.90;99.90;;;;;;6136663;23;20022;-83
2021/01/01 10:03:34;;;;;;;4.00;3.55;;;4.90;99.90;;;;;;6162394;23;20532;-83
2021/01/01 10:06:01;;;;;;;3.97;3.67;;;5.00;99.90;;;;;;6136608;23;20014;-83
2021/01/01 10:08:27;;;;;;;4.20;3.83;;;4.90;99.90;;;;;;6163474;23;20013;-85
2021/01/01 10:10:56;;;;;;;4.70;4.30;;;5.00;99.90;;;;;;6136671;23;20024;-85
2021/01/01 10:13:23;;;;;;;16.63;9.35;;;5.10;99.90;;;;;;6137487;23;20022;-86
2021/01/01 10:15:49;;;;;;;10.65;6.00;;;5.40;99.90;;;;;;6137635;23;20095;-85
2021/01/01 10:18:16;;;;;;;3.85;3.38;;;5.80;99.90;;;;;;6136619;23;20022;-85
2021/01/01 10:20:42;;;;;;;5.68;4.70;;;5.90;99.90;;;;;;6139028;23;20041;-83
2021/01/01 10:23:08;;;;;;;3.50;3.10;;;6.00;99.90;;;;;;6140327;23;20032;-85
2021/01/01 10:25:34;;;;;;;5.78;5.15;;;6.30;99.90;;;;;;6140717;23;20025;-83
2021/01/01 10:28:01;;;;;;;4.20;3.05;;;6.30;99.90;;;;;;6164385;23;20037;-85
2021/01/01 10:30:27;;;;;;;2.97;2.78;;;6.20;99.90;;;;;;6140924;23;20361;-83
2021/01/01 10:32:55;;;;;;;3.80;3.50;;;6.10;99.90;;;;;;6139450;23;20017;-85
2021/01/01 10:35:21;;;;;;;3.35;3.15;;;6.20;99.90;;;;;;6137443;23;20100;-85
2021/01/01 10:37:50;;;;;;;3.47;3.00;;;6.30;99.90;;;;;;6163870;23;20525;-85
2021/01/01 10:40:16;;;;;;;3.38;3.13;;;6.20;99.90;;;;;;6137135;23;20025;-85
2021/01/01 10:42:42;;;;;;;3.22;2.90;;;6.10;99.90;;;;;;6137252;23;20025;-85
2021/01/01 10:45:14;;;;;;;3.50;3.30;;;6.10;99.90;;;;;;6139015;23;20096;-85
2021/01/01 10:47:40;;;;;;;3.25;2.95;;;6.00;99.90;;;;;;6164593;23;20021;-85
2021/01/01 10:50:08;;;;;;;2.30;2.20;;;6.10;99.90;;;;;;6163794;23;20021;-85
2021/01/01 10:52:34;;;;;;;2.90;2.70;;;6.10;99.90;;;;;;6163717;23;20017;-85
2021/01/01 10:55:01;;;;;;;2.67;2.47;;;6.10;99.90;;;;;;6137484;23;20021;-85
2021/01/01 10:57:27;;;;;;;4.10;3.70;;;5.90;99.90;;;;;;6137439;23;20039;-85
2021/01/01 10:59:53;;;;;;;3.90;3.50;;;5.90;99.90;;;;;;6136414;23;20084;-85
2021/01/01 11:02:20;;;;;;;6.05;5.53;;;6.00;99.90;;;;;;6159593;23;20025;-85
2021/01/01 11:04:46;;;;;;;4.13;3.83;;;6.20;99.90;;;;;;6134178;23;20021;-83
2021/01/01 11:07:12;;;;;;;3.70;3.45;;;6.30;99.90;;;;;;6159806;23;20056;-83
2021/01/01 11:09:38;;;;;;;3.65;3.35;;;6.40;99.90;;;;;;6159755;23;20096;-83
2021/01/01 11:12:06;;;;;;;3.00;2.80;;;6.40;99.90;;;;;;6160638;23;20024;-86
2021/01/01 12:25:31;;;;;;;3.42;3.17;;;4.70;99.90;;;;;;6159171;23;20100;-86
2021/01/01 12:28:01;;;;;;;3.85;3.45;;;4.70;99.90;;;;;;6158260;23;20022;-85
2021/01/01 12:30:29;;;;;;;3.42;3.20;;;4.70;99.90;;;;;;6133069;23;20017;-85
2021/01/01 12:32:56;;;;;;;3.40;3.10;;;4.80;99.90;;;;;;6132561;23;20059;-85
2021/01/01 12:35:23;;;;;;;3.20;2.90;;;4.80;99.90;;;;;;6132729;23;20018;-85
2021/01/01 12:38:01;;;;;;;3.30;3.00;;;4.90;99.90;;;;;;6132644;23;20468;-81
2021/01/01 12:40:28;;;;;;;3.40;3.10;;;5.00;99.90;;;;;;6158633;23;20453;-84
2021/01/01 12:42:55;;;;;;;3.33;2.95;;;5.00;99.90;;;;;;6131961;23;20057;-84
2021/01/01 12:45:23;;;;;;;3.67;3.38;;;5.00;99.90;;;;;;6158580;23;20028;-85
2021/01/01 12:47:51;;;;;;;3.60;3.20;;;4.90;99.90;;;;;;6159033;23;20105;-85
2021/01/01 12:50:18;;;;;;;3.78;3.40;;;4.80;99.90;;;;;;6132647;23;20041;-85
2021/01/01 12:52:55;;;;;;;3.40;3.10;;;4.80;99.90;;;;;;6132276;23;20021;-85
2021/01/01 12:55:22;;;;;;;3.22;2.92;;;4.90;99.90;;;;;;6131994;23;20041;-84
2021/01/01 12:57:49;;;;;;;3.72;3.42;;;5.00;99.90;;;;;;6131890;23;20488;-85
2021/01/01 13:00:16;;;;;;;3.13;2.88;;;5.10;99.90;;;;;;6131952;23;20357;-83
2021/01/01 13:02:42;;;;;;;2.90;2.70;;;5.10;99.90;;;;;;6134436;23;20049;-85
2021/01/01 13:05:09;;;;;;;3.47;3.00;;;5.10;99.90;;;;;;6158180;23;20539;-85
2021/01/01 13:07:37;;;;;;;3.03;2.83;;;5.20;99.90;;;;;;6131578;23;20017;-85
2021/01/01 13:10:06;;;;;;;3.30;3.10;;;5.40;99.90;;;;;;6134515;23;20044;-85
2021/01/01 13:12:33;;;;;;;3.35;3.05;;;5.40;99.90;;;;;;6158536;23;20056;-85
2021/01/01 13:15:00;;;;;;;3.08;2.88;;;5.40;99.90;;;;;;6159129;23;20049;-85
2021/01/01 13:17:26;;;;;;;3.10;2.90;;;5.30;99.90;;;;;;6157866;23;20025;-82
2021/01/01 13:19:53;;;;;;;3.15;2.95;;;5.40;99.90;;;;;;6130012;23;20059;-84
2021/01/01 13:22:19;;;;;;;3.10;2.80;;;5.30;99.90;;;;;;6131279;23;20353;-85
2021/01/01 13:24:46;;;;;;;3.25;2.95;;;5.30;99.90;;;;;;6134242;23;20026;-85
2021/01/01 13:27:12;;;;;;;3.10;2.90;;;5.30;99.90;;;;;;6133962;23;20022;-85
2021/01/01 13:29:39;;;;;;;3.53;3.22;;;5.10;99.90;;;;;;6133779;23;20060;-85
2021/01/01 13:32:05;;;;;;;4.32;2.70;;;4.80;99.90;;;;;;6133785;23;20018;-85
2021/01/01 13:34:31;;;;;;;3.08;2.88;;;4.80;99.90;;;;;;6133161;23;20076;-85
2021/01/01 13:36:58;;;;;;;3.38;3.17;;;4.70;99.90;;;;;;6158772;23;20059;-85
2021/01/01 13:39:24;;;;;;;3.13;2.90;;;4.70;99.90;;;;;;6133166;23;20021;-85
2021/01/01 13:41:51;;;;;;;2.75;2.55;;;4.70;99.90;;;;;;6132423;23;20025;-85
2021/01/01 13:44:18;;;;;;;3.35;3.15;;;4.60;99.90;;;;;;6159068;23;20341;-86
2021/01/01 13:46:46;;;;;;;2.78;2.58;;;4.50;99.90;;;;;;6157732;23;20250;-85
2021/01/01 13:49:12;;;;;;;2.88;2.67;;;4.50;99.90;;;;;;6132397;23;20045;-85
2021/01/01 13:51:38;;;;;;;4.03;3.33;;;4.50;99.90;;;;;;6132392;23;20420;-84
2021/01/01 13:54:05;;;;;;;3.22;2.88;;;4.60;99.90;;;;;;6132911;23;20021;-86
2021/01/01 13:56:32;;;;;;;3.45;3.15;;;4.60;99.90;;;;;;6158871;23;20472;-85
2021/01/01 13:59:00;;;;;;;3.70;3.33;;;4.70;99.90;;;;;;6159540;23;20061;-85
2021/01/01 14:01:26;;;;;;;3.28;2.97;;;4.80;99.90;;;;;;6134607;23;20031;-86
2021/01/01 14:03:53;;;;;;;3.10;2.90;;;4.70;99.90;;;;;;6135954;23;20500;-85
2021/01/01 14:06:32;;;;;;;3.17;2.97;;;4.60;99.90;;;;;;6135511;23;20021;-86